sensor_id;sensor_type;location;lat;lon;timestamp;pressure;altitude;pressure_sealevel;temperature;humidity
49377;BME280;35253;34.688;33.040;2023-04-25T00:00:11;100851.50;;;17.84;100.00
49377;BME280;35253;34.688;33.040;2023-04-25T00:02:37;100858.16;;;17.80;100.00
49377;BME280;35253;34.688;33.040;2023-04-25T00:05:03;100853.00;;;17.97;100.00
49377;BME280;35253;34.688;33.040;2023-04-25T00:07:30;100855.31;;;18.02;100.00
49377;BME280;35253;34.688;33.040;2023-04-25T00:09:56;100850.97;;;17.90;100.00
49377;BME280;35253;34.688;33.040;2023-04-25T00:12:22;100850.13;;;17.89;100.00
49377;BME280;35253;34.688;33.040;2023-04-25T00:14:48;100853.34;;;17.63;100.00
49377;BME280;35253;34.688;33.040;2023-04-25T00:17:16;100857.84;;;17.41;100.00
49377;BME280;35253;34.688;33.040;2023-04-25T00:19:42;100855.81;;;17.02;100.00
49377;BME280;35253;34.688;33.040;2023-04-25T00:22:10;100865.56;;;17.14;100.00
49377;BME280;35253;34.688;33.040;2023-04-25T00:24:36;100856.56;;;16.93;100.00
49377;BME280;35253;34.688;33.040;2023-04-25T00:27:01;100852.84;;;17.05;100.00
49377;BME280;35253;34.688;33.040;2023-04-25T00:29:27;100857.84;;;17.41;100.00
49377;BME280;35253;34.688;33.040;2023-04-25T00:31:53;100861.28;;;17.64;100.00
49377;BME280;35253;34.688;33.040;2023-04-25T00:34:18;100865.50;;;17.78;100.00
49377;BME280;35253;34.688;33.040;2023-04-25T00:36:44;100859.59;;;17.84;100.00
49377;BME280;35253;34.688;33.040;2023-04-25T00:39:12;100866.16;;;17.91;100.00
49377;BME280;35253;34.688;33.040;2023-04-25T00:41:38;100859.06;;;17.90;100.00
49377;BME280;35253;34.688;33.040;2023-04-25T00:44:05;100869.06;;;17.78;100.00
49377;BME280;35253;34.688;33.040;2023-04-25T00:46:32;100864.00;;;17.64;100.00
49377;BME280;35253;34.688;33.040;2023-04-25T00:48:58;100869.16;;;17.67;100.00
49377;BME280;35253;34.688;33.040;2023-04-25T00:51:25;100869.81;;;17.17;100.00
49377;BME280;35253;34.688;33.040;2023-04-25T00:53:52;100867.94;;;16.96;100.00
49377;BME280;35253;34.688;33.040;2023-04-25T00:56:18;100869.50;;;17.10;100.00
49377;BME280;35253;34.688;33.040;2023-04-25T00:58:44;100870.47;;;17.09;100.00
49377;BME280;35253;34.688;33.040;2023-04-25T01:01:10;100870.34;;;17.10;100.00
49377;BME280;35253;34.688;33.040;2023-04-25T01:03:38;100867.34;;;16.93;100.00
49377;BME280;35253;34.688;33.040;2023-04-25T01:06:08;100871.50;;;16.86;100.00
49377;BME280;35253;34.688;33.040;2023-04-25T01:08:34;100873.63;;;16.71;100.00
49377;BME280;35253;34.688;33.040;2023-04-25T01:11:01;100865.03;;;16.88;100.00
49377;BME280;35253;34.688;33.040;2023-04-25T01:13:27;100865.34;;;16.95;100.00
49377;BME280;35253;34.688;33.040;2023-04-25T01:15:52;100873.91;;;17.00;100.00
49377;BME280;35253;34.688;33.040;2023-04-25T01:18:19;100870.19;;;17.23;100.00
49377;BME280;35253;34.688;33.040;2023-04-25T01:20:47;100870.88;;;17.25;100.00
49377;BME280;35253;34.688;33.040;2023-04-25T01:23:15;100869.81;;;17.48;100.00
49377;BME280;35253;34.688;33.040;2023-04-25T01:25:41;100868.41;;;17.65;100.00
49377;BME280;35253;34.688;33.040;2023-04-25T01:28:07;100865.50;;;17.78;100.00
49377;BME280;35253;34.688;33.040;2023-04-25T01:30:34;100871.16;;;17.75;100.00
49377;BME280;35253;34.688;33.040;2023-04-25T01:33:03;100869.72;;;17.71;100.00
49377;BME280;35253;34.688;33.040;2023-04-25T01:35:29;100879.84;;;17.78;100.00
49377;BME280;35253;34.688;33.040;2023-04-25T01:37:55;100880.50;;;17.71;100.00
49377;BME280;35253;34.688;33.040;2023-04-25T01:40:21;100881.69;;;17.78;100.00
49377;BME280;35253;34.688;33.040;2023-04-25T01:42:48;100871.84;;;17.56;100.00
49377;BME280;35253;34.688;33.040;2023-04-25T01:45:14;100881.28;;;17.62;100.00
49377;BME280;35253;34.688;33.040;2023-04-25T01:47:40;100876.44;;;17.44;100.00
49377;BME280;35253;34.688;33.040;2023-04-25T01:50:08;100883.16;;;17.50;100.00
49377;BME280;35253;34.688;33.040;2023-04-25T01:52:34;100873.69;;;17.55;100.00
49377;BME280;35253;34.688;33.040;2023-04-25T01:55:01;100880.88;;;17.45;100.00
49377;BME280;35253;34.688;33.040;2023-04-25T01:57:27;100870.00;;;17.56;100.00
49377;BME280;35253;34.688;33.040;2023-04-25T01:59:58;100875.22;;;17.48;100.00
49377;BME280;35253;34.688;33.040;2023-04-25T02:02:24;100878.88;;;17.47;100.00
49377;BME280;35253;34.688;33.040;2023-04-25T02:04:49;100882.63;;;17.35;100.00
49377;BME280;35253;34.688;33.040;2023-04-25T02:07:15;100886.84;;;17.49;100.00
49377;BME280;35253;34.688;33.040;2023-04-25T02:09:41;100885.25;;;17.46;100.00
49377;BME280;35253;34.688;33.040;2023-04-25T02:12:09;100885.59;;;17.53;100.00
49377;BME280;35253;34.688;33.040;2023-04-25T02:14:35;100885.44;;;17.34;100.00
49377;BME280;35253;34.688;33.040;2023-04-25T02:17:00;100882.69;;;17.24;100.00
49377;BME280;35253;34.688;33.040;2023-04-25T02:19:26;100891.38;;;17.48;100.00
49377;BME280;35253;34.688;33.040;2023-04-25T02:21:52;100889.56;;;17.38;100.00
49377;BME280;35253;34.688;33.040;2023-04-25T02:24:17;100896.00;;;17.26;100.00
49377;BME280;35253;34.688;33.040;2023-04-25T02:26:43;100903.16;;;17.04;100.00
49377;BME280;35253;34.688;33.040;2023-04-25T02:29:09;100896.66;;;17.18;100.00
49377;BME280;35253;34.688;33.040;2023-04-25T02:31:35;100896.84;;;17.26;100.00
49377;BME280;35253;34.688;33.040;2023-04-25T02:34:01;100888.75;;;17.37;100.00
49377;BME280;35253;34.688;33.040;2023-04-25T02:36:27;100887.22;;;17.44;100.00
49377;BME280;35253;34.688;33.040;2023-04-25T02:38:55;100889.38;;;17.30;100.00
49377;BME280;35253;34.688;33.040;2023-04-25T02:41:20;100901.22;;;17.38;100.00
49377;BME280;35253;34.688;33.040;2023-04-25T02:43:46;100894.97;;;17.38;100.00
49377;BME280;35253;34.688;33.040;2023-04-25T02:46:12;100898.72;;;17.46;100.00
49377;BME280;35253;34.688;33.040;2023-04-25T02:48:37;100891.09;;;17.51;100.00
49377;BME280;35253;34.688;33.040;2023-04-25T02:51:03;100896.00;;;17.57;100.00
49377;BME280;35253;34.688;33.040;2023-04-25T02:53:29;100900.63;;;17.67;100.00
49377;BME280;35253;34.688;33.040;2023-04-25T02:55:54;100892.19;;;17.60;100.00
49377;BME280;35253;34.688;33.040;2023-04-25T02:58:23;100902.00;;;17.61;100.00
49377;BME280;35253;34.688;33.040;2023-04-25T03:00:49;100900.44;;;17.59;100.00
49377;BME280;35253;34.688;33.040;2023-04-25T03:03:14;100897.94;;;17.55;100.00
49377;BME280;35253;34.688;33.040;2023-04-25T03:05:43;100897.84;;;17.57;100.00
49377;BME280;35253;34.688;33.040;2023-04-25T03:08:09;100897.34;;;17.63;100.00
49377;BME280;35253;34.688;33.040;2023-04-25T03:10:34;100903.59;;;17.64;100.00
49377;BME280;35253;34.688;33.040;2023-04-25T03:13:00;100905.97;;;17.78;100.00
49377;BME280;35253;34.688;33.040;2023-04-25T03:15:26;100906.31;;;17.84;100.00
49377;BME280;35253;34.688;33.040;2023-04-25T03:17:51;100913.03;;;17.90;100.00
49377;BME280;35253;34.688;33.040;2023-04-25T03:20:17;100918.66;;;17.87;100.00
49377;BME280;35253;34.688;33.040;2023-04-25T03:22:43;100921.25;;;17.88;100.00
49377;BME280;35253;34.688;33.040;2023-04-25T03:25:09;100918.16;;;17.93;100.00
49377;BME280;35253;34.688;33.040;2023-04-25T03:27:35;100928.38;;;17.99;100.00
49377;BME280;35253;34.688;33.040;2023-04-25T03:30:01;100931.94;;;17.99;100.00
49377;BME280;35253;34.688;33.040;2023-04-25T03:32:26;100936.72;;;18.07;100.00
49377;BME280;35253;34.688;33.040;2023-04-25T03:34:52;100928.84;;;18.04;100.00
49377;BME280;35253;34.688;33.040;2023-04-25T03:37:18;100936.56;;;17.88;100.00
49377;BME280;35253;34.688;33.040;2023-04-25T03:39:43;100937.75;;;17.95;100.00
49377;BME280;35253;34.688;33.040;2023-04-25T03:42:09;100939.19;;;17.99;100.00
49377;BME280;35253;34.688;33.040;2023-04-25T03:44:35;100940.38;;;18.06;100.00
49377;BME280;35253;34.688;33.040;2023-04-25T03:47:00;100940.84;;;18.11;100.00
49377;BME280;35253;34.688;33.040;2023-04-25T03:49:26;100943.34;;;18.24;100.00
49377;BME280;35253;34.688;33.040;2023-04-25T03:51:52;100942.03;;;18.18;100.00
49377;BME280;35253;34.688;33.040;2023-04-25T03:54:17;100944.19;;;18.24;100.00
49377;BME280;35253;34.688;33.040;2023-04-25T03:56:43;100946.44;;;18.19;100.00
49377;BME280;35253;34.688;33.040;2023-04-25T03:59:09;100944.91;;;18.26;100.00
49377;BME280;35253;34.688;33.040;2023-04-25T04:01:34;100950.09;;;18.39;100.00
49377;BME280;35253;34.688;33.040;2023-04-25T04:04:00;100963.63;;;18.48;100.00
49377;BME280;35253;34.688;33.040;2023-04-25T04:06:26;100955.63;;;18.58;100.00
49377;BME280;35253;34.688;33.040;2023-04-25T04:08:52;100954.28;;;18.73;100.00
49377;BME280;35253;34.688;33.040;2023-04-25T04:11:18;100959.00;;;18.81;100.00
49377;BME280;35253;34.688;33.040;2023-04-25T04:13:43;100956.75;;;18.96;100.00
49377;BME280;35253;34.688;33.040;2023-04-25T04:16:09;100952.25;;;19.06;100.00
49377;BME280;35253;34.688;33.040;2023-04-25T04:18:35;100960.53;;;19.23;100.00
49377;BME280;35253;34.688;33.040;2023-04-25T04:21:01;100962.84;;;19.38;100.00
49377;BME280;35253;34.688;33.040;2023-04-25T04:23:26;100958.91;;;19.51;100.00
49377;BME280;35253;34.688;33.040;2023-04-25T04:25:53;100967.19;;;19.69;100.00
49377;BME280;35253;34.688;33.040;2023-04-25T04:28:19;100965.47;;;19.87;100.00
49377;BME280;35253;34.688;33.040;2023-04-25T04:30:46;100957.47;;;19.95;100.00
49377;BME280;35253;34.688;33.040;2023-04-25T04:33:11;100965.31;;;19.98;100.00
49377;BME280;35253;34.688;33.040;2023-04-25T04:35:37;100975.81;;;20.20;100.00
49377;BME280;35253;34.688;33.040;2023-04-25T04:38:03;100972.38;;;20.28;100.00
49377;BME280;35253;34.688;33.040;2023-04-25T04:40:29;100975.97;;;20.38;100.00
49377;BME280;35253;34.688;33.040;2023-04-25T04:42:56;100969.09;;;20.53;100.00
49377;BME280;35253;34.688;33.040;2023-04-25T04:45:23;100962.38;;;20.57;100.00
49377;BME280;35253;34.688;33.040;2023-04-25T04:47:49;100963.91;;;20.60;100.00
49377;BME280;35253;34.688;33.040;2023-04-25T04:50:15;100963.41;;;20.84;100.00
49377;BME280;35253;34.688;33.040;2023-04-25T04:52:41;100960.06;;;20.90;100.00
49377;BME280;35253;34.688;33.040;2023-04-25T04:55:07;100961.25;;;20.87;100.00
49377;BME280;35253;34.688;33.040;2023-04-25T04:57:35;100960.34;;;20.96;100.00
49377;BME280;35253;34.688;33.040;2023-04-25T05:00:01;100958.31;;;20.98;100.00
49377;BME280;35253;34.688;33.040;2023-04-25T05:02:30;100953.81;;;21.17;100.00
49377;BME280;35253;34.688;33.040;2023-04-25T05:04:56;100977.63;;;21.23;100.00
49377;BME280;35253;34.688;33.040;2023-04-25T05:07:21;100974.56;;;21.35;100.00
49377;BME280;35253;34.688;33.040;2023-04-25T05:09:47;100973.19;;;21.49;100.00
49377;BME280;35253;34.688;33.040;2023-04-25T05:12:13;100973.94;;;21.59;100.00
49377;BME280;35253;34.688;33.040;2023-04-25T05:14:38;100973.78;;;21.61;100.00
49377;BME280;35253;34.688;33.040;2023-04-25T05:17:04;100970.47;;;21.67;100.00
49377;BME280;35253;34.688;33.040;2023-04-25T05:19:34;100971.81;;;21.80;100.00
49377;BME280;35253;34.688;33.040;2023-04-25T05:21:59;100972.41;;;21.74;100.00
49377;BME280;35253;34.688;33.040;2023-04-25T05:24:25;100967.50;;;21.78;100.00
49377;BME280;35253;34.688;33.040;2023-04-25T05:26:51;100963.19;;;21.67;100.00
49377;BME280;35253;34.688;33.040;2023-04-25T05:29:16;100968.31;;;21.70;100.00
49377;BME280;35253;34.688;33.040;2023-04-25T05:31:42;100964.97;;;21.76;100.00
49377;BME280;35253;34.688;33.040;2023-04-25T05:34:08;100973.19;;;21.67;100.00
49377;BME280;35253;34.688;33.040;2023-04-25T05:36:33;100977.75;;;20.57;100.00
49377;BME280;35253;34.688;33.040;2023-04-25T05:38:59;100969.06;;;20.90;100.00
49377;BME280;35253;34.688;33.040;2023-04-25T05:41:25;100977.25;;;20.15;100.00
49377;BME280;35253;34.688;33.040;2023-04-25T05:43:50;100988.25;;;19.94;100.00
49377;BME280;35253;34.688;33.040;2023-04-25T05:46:16;100981.88;;;20.61;100.00
49377;BME280;35253;34.688;33.040;2023-04-25T05:48:45;100979.91;;;20.90;100.00
49377;BME280;35253;34.688;33.040;2023-04-25T05:51:10;100984.16;;;21.30;100.00
49377;BME280;35253;34.688;33.040;2023-04-25T05:53:36;100974.56;;;21.35;100.00
49377;BME280;35253;34.688;33.040;2023-04-25T05:56:02;100978.75;;;21.65;100.00
49377;BME280;35253;34.688;33.040;2023-04-25T05:58:28;100977.22;;;21.80;100.00
49377;BME280;35253;34.688;33.040;2023-04-25T06:00:54;100978.75;;;21.83;100.00
49377;BME280;35253;34.688;33.040;2023-04-25T06:03:20;100967.06;;;21.82;100.00
49377;BME280;35253;34.688;33.040;2023-04-25T06:05:46;100978.63;;;21.84;100.00
49377;BME280;35253;34.688;33.040;2023-04-25T06:08:12;100976.28;;;21.89;100.00
49377;BME280;35253;34.688;33.040;2023-04-25T06:10:38;100979.94;;;21.80;100.00
49377;BME280;35253;34.688;33.040;2023-04-25T06:13:04;100983.41;;;21.55;100.00
49377;BME280;35253;34.688;33.040;2023-04-25T06:15:31;100987.81;;;21.38;100.00
49377;BME280;35253;34.688;33.040;2023-04-25T06:17:58;100985.09;;;21.56;100.00
49377;BME280;35253;34.688;33.040;2023-04-25T06:20:24;100990.16;;;21.69;100.00
49377;BME280;35253;34.688;33.040;2023-04-25T06:22:51;100993.25;;;21.74;100.00
49377;BME280;35253;34.688;33.040;2023-04-25T06:25:18;100991.94;;;21.78;100.00
49377;BME280;35253;34.688;33.040;2023-04-25T06:27:43;100986.69;;;21.76;100.00
49377;BME280;35253;34.688;33.040;2023-04-25T06:30:10;100996.13;;;21.90;100.00
49377;BME280;35253;34.688;33.040;2023-04-25T06:32:40;100991.41;;;21.92;100.00
49377;BME280;35253;34.688;33.040;2023-04-25T06:35:06;100996.03;;;21.64;100.00
49377;BME280;35253;34.688;33.040;2023-04-25T06:37:32;100997.06;;;21.81;100.00
49377;BME280;35253;34.688;33.040;2023-04-25T06:39:57;100993.97;;;21.76;100.00
49377;BME280;35253;34.688;33.040;2023-04-25T06:42:23;100991.16;;;21.68;100.00
49377;BME280;35253;34.688;33.040;2023-04-25T06:44:49;100993.25;;;21.74;100.00
49377;BME280;35253;34.688;33.040;2023-04-25T06:47:15;101001.56;;;21.72;100.00
49377;BME280;35253;34.688;33.040;2023-04-25T06:49:40;100997.22;;;21.79;100.00
49377;BME280;35253;34.688;33.040;2023-04-25T06:52:07;101003.19;;;21.83;100.00
49377;BME280;35253;34.688;33.040;2023-04-25T06:54:33;100997.84;;;21.73;100.00
49377;BME280;35253;34.688;33.040;2023-04-25T06:56:58;101007.56;;;21.76;100.00
49377;BME280;35253;34.688;33.040;2023-04-25T06:59:26;100995.66;;;21.59;100.00
49377;BME280;35253;34.688;33.040;2023-04-25T07:01:52;101008.97;;;21.35;100.00
49377;BME280;35253;34.688;33.040;2023-04-25T07:04:17;101009.38;;;21.40;100.00
49377;BME280;35253;34.688;33.040;2023-04-25T07:06:55;101011.06;;;21.41;100.00
49377;BME280;35253;34.688;33.040;2023-04-25T07:09:21;101005.41;;;21.52;100.00
49377;BME280;35253;34.688;33.040;2023-04-25T07:11:46;101003.94;;;21.40;100.00
49377;BME280;35253;34.688;33.040;2023-04-25T07:14:12;101009.06;;;21.43;100.00
49377;BME280;35253;34.688;33.040;2023-04-25T07:16:38;101010.91;;;21.42;100.00
49377;BME280;35253;34.688;33.040;2023-04-25T07:19:03;101006.31;;;20.88;100.00
49377;BME280;35253;34.688;33.040;2023-04-25T07:21:29;101008.19;;;20.78;100.00
49377;BME280;35253;34.688;33.040;2023-04-25T07:23:57;101007.38;;;21.15;100.00
49377;BME280;35253;34.688;33.040;2023-04-25T07:26:23;101009.41;;;21.30;100.00
49377;BME280;35253;34.688;33.040;2023-04-25T07:28:48;101009.19;;;21.41;100.00
49377;BME280;35253;34.688;33.040;2023-04-25T07:31:17;101023.59;;;21.42;100.00
49377;BME280;35253;34.688;33.040;2023-04-25T07:33:44;101011.22;;;20.75;100.00
49377;BME280;35253;34.688;33.040;2023-04-25T07:36:12;101015.75;;;20.84;100.00
49377;BME280;35253;34.688;33.040;2023-04-25T07:38:40;101018.63;;;20.73;100.00
49377;BME280;35253;34.688;33.040;2023-04-25T07:41:06;101029.41;;;20.92;100.00
49377;BME280;35253;34.688;33.040;2023-04-25T07:43:32;101019.38;;;21.02;100.00
49377;BME280;35253;34.688;33.040;2023-04-25T07:45:57;101025.03;;;21.19;100.00
49377;BME280;35253;34.688;33.040;2023-04-25T07:48:23;101022.72;;;20.40;100.00
49377;BME280;35253;34.688;33.040;2023-04-25T07:50:49;101034.38;;;20.21;100.00
49377;BME280;35253;34.688;33.040;2023-04-25T07:53:15;101034.38;;;20.41;100.00
49377;BME280;35253;34.688;33.040;2023-04-25T07:55:41;101036.28;;;20.77;100.00
49377;BME280;35253;34.688;33.040;2023-04-25T07:58:07;101040.16;;;21.11;100.00
49377;BME280;35253;34.688;33.040;2023-04-25T08:00:33;101043.13;;;20.81;100.00
49377;BME280;35253;34.688;33.040;2023-04-25T08:02:59;101043.78;;;20.37;100.00
49377;BME280;35253;34.688;33.040;2023-04-25T08:05:25;101044.00;;;20.82;100.00
49377;BME280;35253;34.688;33.040;2023-04-25T08:07:50;101034.59;;;21.23;100.00
49377;BME280;35253;34.688;33.040;2023-04-25T08:10:16;101039.19;;;21.40;100.00
49377;BME280;35253;34.688;33.040;2023-04-25T08:12:42;101041.81;;;20.85;100.00
49377;BME280;35253;34.688;33.040;2023-04-25T08:15:08;101043.78;;;21.39;100.00
49377;BME280;35253;34.688;33.040;2023-04-25T08:17:34;101043.81;;;21.57;100.00
49377;BME280;35253;34.688;33.040;2023-04-25T08:20:00;101041.91;;;21.67;100.00
49377;BME280;35253;34.688;33.040;2023-04-25T08:22:29;101047.00;;;21.70;100.00
49377;BME280;35253;34.688;33.040;2023-04-25T08:24:55;101048.72;;;21.71;100.00
49377;BME280;35253;34.688;33.040;2023-04-25T08:27:21;101050.34;;;21.82;100.00
49377;BME280;35253;34.688;33.040;2023-04-25T08:29:47;101045.47;;;21.13;100.00
49377;BME280;35253;34.688;33.040;2023-04-25T08:32:13;101048.25;;;21.58;100.00
49377;BME280;35253;34.688;33.040;2023-04-25T08:34:41;101051.19;;;21.82;100.00
49377;BME280;35253;34.688;33.040;2023-04-25T08:37:08;101051.59;;;21.87;100.00
49377;BME280;35253;34.688;33.040;2023-04-25T08:39:36;101042.69;;;21.32;100.00
49377;BME280;35253;34.688;33.040;2023-04-25T08:42:05;101038.81;;;21.80;100.00
49377;BME280;35253;34.688;33.040;2023-04-25T08:44:36;101038.53;;;22.00;100.00
49377;BME280;35253;34.688;33.040;2023-04-25T08:47:05;101028.13;;;22.14;100.00
49377;BME280;35253;34.688;33.040;2023-04-25T08:49:32;101036.25;;;22.31;100.00
49377;BME280;35253;34.688;33.040;2023-04-25T08:52:03;101033.34;;;22.51;100.00
49377;BME280;35253;34.688;33.040;2023-04-25T08:54:32;101043.41;;;22.58;100.00
49377;BME280;35253;34.688;33.040;2023-04-25T08:57:00;101035.72;;;21.92;100.00
49377;BME280;35253;34.688;33.040;2023-04-25T08:59:32;101038.41;;;22.45;100.00
49377;BME280;35253;34.688;33.040;2023-04-25T09:01:58;101030.31;;;22.10;100.00
49377;BME280;35253;34.688;33.040;2023-04-25T09:04:24;101035.97;;;21.54;100.00
49377;BME280;35253;34.688;33.040;2023-04-25T09:06:50;101021.50;;;21.63;100.00
49377;BME280;35253;34.688;33.040;2023-04-25T09:09:16;101026.28;;;21.51;100.00
49377;BME280;35253;34.688;33.040;2023-04-25T09:11:41;101023.41;;;21.98;100.00
49377;BME280;35253;34.688;33.040;2023-04-25T09:14:21;101010.63;;;22.34;100.00
49377;BME280;35253;34.688;33.040;2023-04-25T09:19:40;101011.44;;;22.78;100.00
49377;BME280;35253;34.688;33.040;2023-04-25T09:22:09;101014.75;;;22.89;100.00
49377;BME280;35253;34.688;33.040;2023-04-25T09:24:39;101007.91;;;23.11;100.00
49377;BME280;35253;34.688;33.040;2023-04-25T09:27:09;101005.38;;;23.26;100.00
49377;BME280;35253;34.688;33.040;2023-04-25T09:29:36;101007.69;;;23.05;100.00
49377;BME280;35253;34.688;33.040;2023-04-25T09:32:22;101001.41;;;22.27;100.00
49377;BME280;35253;34.688;33.040;2023-04-25T09:34:53;101000.78;;;22.84;100.00
49377;BME280;35253;34.688;33.040;2023-04-25T09:37:22;101006.09;;;23.36;100.00
49377;BME280;35253;34.688;33.040;2023-04-25T09:39:50;101001.81;;;23.75;100.00
49377;BME280;35253;34.688;33.040;2023-04-25T09:42:16;101002.13;;;23.56;100.00
49377;BME280;35253;34.688;33.040;2023-04-25T09:44:44;100997.44;;;22.21;100.00
49377;BME280;35253;34.688;33.040;2023-04-25T09:47:12;101004.72;;;22.21;100.00
49377;BME280;35253;34.688;33.040;2023-04-25T09:49:42;100998.66;;;22.70;100.00
49377;BME280;35253;34.688;33.040;2023-04-25T09:52:08;101001.31;;;22.62;100.00
49377;BME280;35253;34.688;33.040;2023-04-25T09:54:34;101000.09;;;23.58;100.00
49377;BME280;35253;34.688;33.040;2023-04-25T09:57:19;101006.69;;;23.14;100.00
49377;BME280;35253;34.688;33.040;2023-04-25T09:59:50;100999.78;;;23.77;100.00
49377;BME280;35253;34.688;33.040;2023-04-25T10:02:18;100996.41;;;22.91;100.00
49377;BME280;35253;34.688;33.040;2023-04-25T10:04:51;100994.19;;;23.29;100.00
49377;BME280;35253;34.688;33.040;2023-04-25T10:07:24;100997.94;;;24.02;100.00
49377;BME280;35253;34.688;33.040;2023-04-25T10:10:03;100995.72;;;24.46;100.00
49377;BME280;35253;34.688;33.040;2023-04-25T10:12:30;100991.59;;;24.75;100.00
49377;BME280;35253;34.688;33.040;2023-04-25T10:14:58;100990.50;;;24.84;100.00
49377;BME280;35253;34.688;33.040;2023-04-25T10:17:24;101002.09;;;24.94;100.00
49377;BME280;35253;34.688;33.040;2023-04-25T10:19:51;100995.50;;;25.27;100.00
49377;BME280;35253;34.688;33.040;2023-04-25T10:22:23;100989.13;;;25.04;100.00
49377;BME280;35253;34.688;33.040;2023-04-25T10:24:52;100998.53;;;25.32;100.00
49377;BME280;35253;34.688;33.040;2023-04-25T10:27:18;100986.75;;;25.40;100.00
49377;BME280;35253;34.688;33.040;2023-04-25T10:29:44;100992.75;;;24.96;100.00
49377;BME280;35253;34.688;33.040;2023-04-25T10:32:09;100998.44;;;23.98;100.00
49377;BME280;35253;34.688;33.040;2023-04-25T10:37:09;100987.75;;;23.38;100.00
49377;BME280;35253;34.688;33.040;2023-04-25T10:39:35;100986.66;;;24.54;100.00
49377;BME280;35253;34.688;33.040;2023-04-25T10:42:02;100975.84;;;25.01;100.00
49377;BME280;35253;34.688;33.040;2023-04-25T10:44:29;100973.25;;;25.38;100.00
49377;BME280;35253;34.688;33.040;2023-04-25T10:46:56;100970.38;;;25.71;100.00
49377;BME280;35253;34.688;33.040;2023-04-25T10:54:57;100961.72;;;24.81;100.00
49377;BME280;35253;34.688;33.040;2023-04-25T11:00:06;100958.63;;;25.00;100.00
49377;BME280;35253;34.688;33.040;2023-04-25T11:02:48;100968.13;;;23.68;100.00
49377;BME280;35253;34.688;33.040;2023-04-25T11:07:51;100954.00;;;23.89;100.00
49377;BME280;35253;34.688;33.040;2023-04-25T11:10:17;100950.75;;;24.10;100.00
49377;BME280;35253;34.688;33.040;2023-04-25T11:12:45;100952.16;;;24.30;100.00
49377;BME280;35253;34.688;33.040;2023-04-25T11:15:10;100959.28;;;23.99;100.00
49377;BME280;35253;34.688;33.040;2023-04-25T11:17:36;100955.56;;;24.16;100.00
49377;BME280;35253;34.688;33.040;2023-04-25T11:20:02;100948.72;;;23.63;98.05
49377;BME280;35253;34.688;33.040;2023-04-25T11:22:33;100953.94;;;23.49;97.21
49377;BME280;35253;34.688;33.040;2023-04-25T11:25:05;100956.03;;;23.71;100.00
49377;BME280;35253;34.688;33.040;2023-04-25T11:27:32;100953.78;;;23.50;94.00
49377;BME280;35253;34.688;33.040;2023-04-25T11:29:57;100948.00;;;23.53;94.74
49377;BME280;35253;34.688;33.040;2023-04-25T11:32:23;100940.91;;;23.68;93.10
49377;BME280;35253;34.688;33.040;2023-04-25T11:34:49;100935.09;;;24.12;89.33
49377;BME280;35253;34.688;33.040;2023-04-25T11:37:15;100942.94;;;23.99;94.63
49377;BME280;35253;34.688;33.040;2023-04-25T11:39:45;100946.66;;;23.49;90.77
49377;BME280;35253;34.688;33.040;2023-04-25T11:42:14;100937.56;;;23.24;93.24
49377;BME280;35253;34.688;33.040;2023-04-25T11:44:39;100936.13;;;23.70;95.84
49377;BME280;35253;34.688;33.040;2023-04-25T11:47:06;100932.72;;;24.09;95.49
49377;BME280;35253;34.688;33.040;2023-04-25T11:49:31;100930.91;;;23.27;90.01
49377;BME280;35253;34.688;33.040;2023-04-25T11:51:57;100926.84;;;23.31;94.81
49377;BME280;35253;34.688;33.040;2023-04-25T11:54:23;100934.00;;;23.32;97.85
49377;BME280;35253;34.688;33.040;2023-04-25T11:56:50;100929.69;;;23.13;98.51
49377;BME280;35253;34.688;33.040;2023-04-25T11:59:15;100928.66;;;23.72;89.29
49377;BME280;35253;34.688;33.040;2023-04-25T12:01:48;100915.69;;;23.50;89.51
49377;BME280;35253;34.688;33.040;2023-04-25T12:04:17;100923.06;;;23.16;94.68
49377;BME280;35253;34.688;33.040;2023-04-25T12:06:45;100924.88;;;23.57;93.62
49377;BME280;35253;34.688;33.040;2023-04-25T12:09:14;100929.66;;;23.55;100.00
49377;BME280;35253;34.688;33.040;2023-04-25T12:11:46;100919.31;;;23.17;100.00
49377;BME280;35253;34.688;33.040;2023-04-25T12:14:20;100928.91;;;23.37;100.00
49377;BME280;35253;34.688;33.040;2023-04-25T12:16:46;100916.03;;;23.47;100.00
49377;BME280;35253;34.688;33.040;2023-04-25T12:19:16;100925.47;;;23.19;100.00
49377;BME280;35253;34.688;33.040;2023-04-25T12:21:43;100928.91;;;23.29;100.00
49377;BME280;35253;34.688;33.040;2023-04-25T12:24:21;100915.28;;;22.79;100.00
49377;BME280;35253;34.688;33.040;2023-04-25T12:29:20;100910.44;;;22.99;100.00
49377;BME280;35253;34.688;33.040;2023-04-25T12:31:46;100910.75;;;22.96;100.00
49377;BME280;35253;34.688;33.040;2023-04-25T12:34:12;100922.56;;;22.70;100.00
49377;BME280;35253;34.688;33.040;2023-04-25T12:36:38;100913.47;;;22.28;100.00
49377;BME280;35253;34.688;33.040;2023-04-25T12:39:04;100912.25;;;22.56;100.00
49377;BME280;35253;34.688;33.040;2023-04-25T12:41:30;100906.94;;;21.77;100.00
49377;BME280;35253;34.688;33.040;2023-04-25T12:43:56;100899.50;;;21.79;100.00
49377;BME280;35253;34.688;33.040;2023-04-25T12:46:22;100897.91;;;22.12;100.00